Latest Coastal Weather Observations for Wynyard

IDT60701

Issued at 5:35 pm EDT Wednesday 22 October 2014 (issued every 10 minutes, with the page automatically refreshed every 10 minutes)

About coastal observations | Map of coastal stations | Coastal observations for TAS | Marine services | Other Formats
Station Details ID: 091107 Name: WYNYARD AIRPORT Lat: -41.00 Lon: 145.73 Height: 12.0 m
Data from the previous 72 hours. | See also: Recent months at Wynyard
Date/Time
EDT
Temp

°C
Wind Pressure Rain
since 9am
mm
Weather Cloud Vis
km
Sea
Height
m
Swell
Dir
 
Speed
knots
Gust
knots
hPa Trend Height
m
Period
s
Dir
22/05:30pm 15.3 NW 3 5 1016.1 - 0.0 - Partly cloudy 10 - - - -
22/05:00pm 15.2 ENE 5 8 1016.7 - 0.0 - Partly cloudy 10 - - - -
22/04:30pm 15.6 E 3 5 1016.8 - 0.0 - - 10 - - - -
22/04:00pm 16.0 ENE 5 7 1016.8 - 0.0 - Partly cloudy 10 - - - -
22/03:30pm 15.6 E 5 8 1017.0 - 0.0 - Partly cloudy 10 - - - -
22/03:00pm 15.9 ENE 7 10 1017.0 - 0.0 - Cloudy 10 - - - -
22/02:30pm 16.5 ENE 9 13 1017.4 - 0.0 - - 10 - - - -
22/02:00pm 16.3 E 10 14 1017.8 - 0.0 - - 10 - - - -
22/01:30pm 16.3 ENE 9 13 1018.1 - 0.0 - - 10 - - - -
22/01:00pm 16.5 E 8 11 1018.4 - 0.0 - - 10 - - - -
22/12:30pm 16.4 E 9 15 1019.0 - 0.0 - Partly cloudy 10 - - - -
22/12:00pm 16.5 SE 10 13 1019.9 - 0.0 - Partly cloudy 10 - - - -
22/11:30am 16.0 E 11 15 1020.6 - 0.0 - Cloudy 10 - - - -
22/11:00am 16.8 E 10 16 1020.8 - 0.0 - Cloudy 10 - - - -
22/10:30am 16.5 E 10 15 1021.1 - 0.0 - Cloudy 10 - - - -
22/10:00am 15.9 E 10 16 1021.6 - 0.0 - Cloudy 10 - - - -
22/09:30am 15.4 E 9 15 1021.6 - 0.0 - Cloudy 10 - - - -
22/09:00am 15.1 ESE 11 14 1021.7 - 0.0 - Cloudy 10 - - - -
22/08:30am 14.5 ESE 12 17 1021.8 - 0.0 - Cloudy 10 - - - -
22/08:00am 14.0 ESE 12 16 1022.0 - 0.0 - Cloudy 10 - - - -
22/07:30am 13.4 SE 10 13 1022.4 - 0.0 - Cloudy 10 - - - -
22/07:00am 12.9 ESE 11 17 1022.4 - 0.0 - Cloudy 10 - - - -
22/06:30am 13.0 ESE 12 17 1022.5 - 0.0 - Cloudy 10 - - - -
22/06:00am 13.0 ESE 12 17 1022.4 - 0.0 - Mostly cloudy 10 - - - -
22/05:30am 12.9 ESE 14 20 1022.4 - 0.0 - Cloudy 10 - - - -
22/05:00am 13.0 ESE 13 17 1022.9 - 0.0 - Cloudy 10 - - - -
22/04:30am 13.1 ESE 12 16 1023.3 - 0.0 - Cloudy 10 - - - -
22/04:00am 12.9 ESE 12 17 1023.7 - 0.0 - Cloudy 10 - - - -
22/03:30am 12.9 ESE 12 17 1024.0 - 0.0 - Partly cloudy 10 - - - -
22/03:00am 12.8 ESE 12 16 1024.4 - 0.0 - Cloudy 10 - - - -
22/02:30am 12.7 ESE 14 20 1024.9 - 0.0 - Cloudy 10 - - - -
22/02:00am 12.6 ESE 15 19 1025.5 - 0.0 - Cloudy 10 - - - -
22/01:30am 12.7 E 12 17 1026.3 - 0.0 - Cloudy 10 - - - -
22/01:00am 12.7 E 12 18 1026.7 - 0.0 - Cloudy 10 - - - -
22/12:30am 12.7 E 13 19 1027.1 - 0.0 - Cloudy 10 - - - -
22/12:00am 13.0 E 11 16 1027.5 - 0.0 - Mostly cloudy 10 - - - -
 
Date/Time
EDT
Temp

°C
Wind Pressure Rain
since 9am
mm
Weather Cloud Vis
km
Sea
Height
m
Swell
Dir
 
Speed
knots
Gust
knots
hPa Trend Height
m
Period
s
Dir
21/11:30pm 13.0 E 11 17 1027.7 - 0.0 - Cloudy 10 - - - -
21/11:00pm 12.9 E 11 19 1027.9 - 0.0 - Cloudy 10 - - - -
21/10:30pm 12.6 E 10 16 1028.5 - 0.0 - Partly cloudy 10 - - - -
21/10:00pm 12.5 E 11 16 1028.3 - 0.0 - - 10 - - - -
21/09:30pm 12.4 E 9 15 1028.4 - 0.0 - - 10 - - - -
21/09:00pm 12.6 E 9 15 1028.7 - 0.0 - - 10 - - - -
21/08:30pm 12.5 E 9 14 1028.3 - 0.0 - - 10 - - - -
21/08:00pm 12.6 E 9 13 1028.5 - 0.0 - - 10 - - - -
21/07:30pm 12.9 E 10 19 1028.4 - 0.0 - - 10 - - - -
21/07:00pm 13.4 E 10 15 1028.4 - 0.0 - - 10 - - - -
21/06:30pm 13.8 E 11 18 1028.6 - 0.0 - - 10 - - - -
21/06:00pm 14.3 E 12 19 1028.6 - 0.0 - - 10 - - - -
21/05:30pm 14.6 E 13 19 1028.9 - 0.0 - - 10 - - - -
21/05:00pm 14.7 E 14 20 1029.2 - 0.0 - Cloudy 10 - - - -
21/04:30pm 14.7 E 14 20 1029.3 - 0.0 - Cloudy 10 - - - -
21/04:00pm 15.2 E 14 21 1029.7 - 0.0 - Cloudy 10 - - - -
21/03:30pm 15.3 E 16 23 1030.0 - 0.0 - Partly cloudy 10 - - - -
21/03:00pm 15.2 E 16 24 1030.3 - 0.0 - Partly cloudy 10 - - - -
21/02:30pm 15.5 E 15 23 1030.9 - 0.0 - Partly cloudy 10 - - - -
21/02:00pm 15.3 E 15 21 1031.3 - 0.0 - Cloudy 10 - - - -
21/01:30pm 14.9 E 15 26 1031.6 - 0.0 - - 10 - - - -
21/01:00pm 14.5 E 16 23 1031.9 - 0.0 - Partly cloudy 10 - - - -
21/12:45pm 14.5 E 17 28 1031.9 - 0.0 - Partly cloudy 10 - - - -
21/12:30pm 14.4 E 18 25 1032.0 - 0.0 - Partly cloudy 10 - - - -
21/12:00pm 14.7 E 16 23 1032.2 - 0.0 - - 10 - - - -
21/11:30am 13.9 E 18 25 1032.4 - 0.0 - Partly cloudy 10 - - - -
21/11:00am 14.3 ESE 18 24 1032.8 - 0.0 - Cloudy 10 - - - -
21/10:30am 13.5 ESE 18 25 1033.0 - 0.0 - Cloudy 10 - - - -
21/10:00am 13.2 E 17 24 1033.2 - 0.0 - Cloudy 10 - - - -
21/09:30am 12.8 E 16 21 1033.2 - 0.0 - Cloudy 10 - - - -
21/09:00am 12.6 E 15 21 1033.0 - 0.0 - Mostly cloudy 10 - - - -
21/08:30am 12.4 E 17 22 1033.0 - 0.0 - - 10 - - - -
21/08:00am 12.1 ESE 13 17 1033.0 - 0.0 - Partly cloudy 10 - - - -
21/07:30am 11.6 ESE 15 21 1032.7 - 0.0 - Cloudy 10 - - - -
21/07:00am 11.4 ESE 15 21 1032.6 - 0.0 - Cloudy 10 - - - -
21/06:30am 10.9 E 13 19 1032.3 - 0.0 - Cloudy 10 - - - -
21/06:00am 11.0 ESE 16 22 1031.9 - 0.0 - Cloudy 10 - - - -
21/05:30am 10.7 ESE 14 20 1031.9 - 0.0 - Cloudy 10 - - - -
21/05:00am 10.6 E 14 21 1031.7 - 0.0 - Cloudy 10 - - - -
21/04:30am 10.6 ESE 15 20 1031.6 - 0.0 - Cloudy 10 - - - -
21/04:00am 10.5 ESE 13 18 1032.0 - 0.0 - Cloudy 10 - - - -
21/03:30am 10.5 ESE 12 15 1032.4 - 0.0 - Cloudy 10 - - - -
21/03:00am 10.3 ESE 11 15 1032.8 - 0.0 - Mostly cloudy 10 - - - -
21/02:30am 10.2 ESE 10 14 1032.9 - 0.0 - Partly cloudy 10 - - - -
21/02:00am 11.3 ENE 11 17 1033.2 - 0.0 - Partly cloudy 10 - - - -
21/01:30am 11.3 ENE 11 16 1033.6 - 0.0 - Partly cloudy 10 - - - -
21/01:00am 11.4 ENE 12 18 1033.7 - 0.0 - Partly cloudy 10 - - - -
21/12:30am 9.3 ESE 7 10 1033.8 - 0.0 - Partly cloudy 10 - - - -
21/12:00am 7.8 SE 7 9 1033.7 - 0.0 - Cloudy 10 - - - -
 
Date/Time
EDT
Temp

°C
Wind Pressure Rain
since 9am
mm
Weather Cloud Vis
km
Sea
Height
m
Swell
Dir
 
Speed
knots
Gust
knots
hPa Trend Height
m
Period
s
Dir
20/11:30pm 5.7 SSW 1 4 1034.1 - 0.0 - Partly cloudy 10 - - - -
20/11:00pm 5.3 WNW 1 5 1034.3 - 0.0 - Partly cloudy 10 - - - -
20/10:30pm 4.8 W 4 5 1034.4 - 0.0 - - 10 - - - -
20/10:00pm 5.5 W 1 3 1034.3 - 0.0 - - 10 - - - -
20/09:30pm 6.1 S 5 6 1034.3 - 0.0 - - 10 - - - -
20/09:00pm 6.7 S 6 7 1034.0 - 0.0 - - 10 - - - -
20/08:30pm 5.8 S 6 6 1033.9 - 0.0 - - 10 - - - -
20/08:00pm 7.3 SSE 5 6 1033.4 - 0.0 - - 10 - - - -
20/07:30pm 10.3 ENE 3 5 1033.4 - 0.0 - - 10 - - - -
20/07:00pm 11.0 E 4 5 1033.1 - 0.0 - - 10 - - - -
20/06:30pm 11.4 NE 4 6 1033.1 - 0.0 - - 10 - - - -
20/06:00pm 11.7 NNE 5 7 1033.3 - 0.0 - - 10 - - - -
20/05:30pm 11.8 NNE 8 10 1033.5 - 0.0 - - 10 - - - -
20/05:00pm 12.1 NE 9 11 1033.3 - 0.0 - - 10 - - - -
20/04:30pm 12.6 NE 10 12 1033.2 - 0.0 - - 10 - - - -
20/04:00pm 12.9 NE 9 11 1033.3 - 0.0 - - 10 - - - -
20/03:30pm 12.9 NE 9 12 1033.4 - 0.0 - - 10 - - - -
20/03:00pm 13.0 NE 10 13 1033.6 - 0.0 - - 10 - - - -
20/02:30pm 12.9 ENE 8 12 1033.8 - 0.0 - - 10 - - - -
20/02:00pm 12.3 NE 9 12 1034.2 - 0.0 - - 10 - - - -
20/01:30pm 12.4 ENE 8 11 1034.4 - 0.0 - - 10 - - - -
20/01:00pm 12.1 NE 8 11 1034.6 - 0.0 - - 10 - - - -
20/12:30pm 11.6 ENE 8 12 1034.8 - 0.0 - - 10 - - - -
20/12:00pm 11.8 ENE 7 11 1034.8 - 0.0 - - 10 - - - -
20/11:30am 11.1 ENE 8 12 1034.8 - 0.0 - - 10 - - - -
20/11:00am 11.2 E 8 12 1034.8 - 0.0 - - 10 - - - -
20/10:30am 10.7 E 9 13 1034.7 - 0.0 - - 10 - - - -
20/10:00am 10.7 E 8 11 1034.5 - 0.0 - - 10 - - - -
20/09:30am 10.9 E 7 11 1034.3 - 0.0 - - 10 - - - -
20/09:00am 10.0 SE 6 9 1033.8 - 0.0 - - 10 - - - -
20/08:30am 9.0 SE 6 8 1033.6 - 0.0 - - 10 - - - -
20/08:00am 6.9 W 4 5 1033.3 - 0.0 - - 10 - - - -
20/07:30am 5.3 SW 5 7 1032.8 - 0.0 - - 10 - - - -
20/07:00am 3.7 S 6 9 1032.1 - 0.0 - - 10 - - - -
20/06:30am 3.3 SSW 8 11 1031.5 - 0.0 - - 10 - - - -
20/06:00am 3.5 SSW 8 11 1031.2 - 0.0 - - 10 - - - -
20/05:30am 3.4 SSW 8 10 1031.3 - 0.0 - - 10 - - - -
20/05:00am 1.0 SW 7 8 1031.0 - 0.0 - - 10 - - - -
20/04:30am 1.9 SW 1 6 1030.7 - 0.0 - - 10 - - - -
20/04:00am 2.6 SSW 6 8 1030.3 - 0.0 - - 10 - - - -
20/03:30am 4.0 SSW 4 6 1029.9 - 0.0 - - 10 - - - -
20/03:00am 5.6 SSW 5 6 1030.1 - 0.0 - - 10 - - - -
20/02:30am 6.7 SW 9 15 1029.6 - 0.0 - - 10 - - - -
20/02:00am 6.0 SW 10 12 1029.5 - 0.0 - - 10 - - - -
20/01:30am 6.5 SSW 10 12 1029.4 - 0.0 - - 10 - - - -
20/01:00am 5.9 WSW 8 10 1029.4 - 0.0 - - 10 - - - -
20/12:30am 7.4 SSW 1 7 1028.6 - 0.0 - - 10 - - - -
20/12:00am 7.8 SSW 8 13 1028.2 - 0.0 - - 10 - - - -
 
Date/Time
EDT
Temp

°C
Wind Pressure Rain
since 9am
mm
Weather Cloud Vis
km
Sea
Height
m
Swell
Dir
 
Speed
knots
Gust
knots
hPa Trend Height
m
Period
s
Dir
19/11:30pm 8.2 SSW 9 14 1027.6 - 0.0 - - 10 - - - -
19/11:00pm 8.2 SW 10 13 1027.0 - 0.0 - - 10 - - - -
19/10:30pm 9.1 S 5 11 1026.4 - 0.0 - - 10 - - - -
19/10:00pm 8.9 SW 9 13 1026.0 - 0.0 - - 10 - - - -
19/09:30pm 8.2 WSW 7 10 1025.3 - 0.0 - - 10 - - - -
19/09:00pm 9.8 SSW 12 18 1024.7 - 0.0 - - 10 - - - -
19/08:30pm 9.8 SW 12 17 1023.5 - 0.0 - - 10 - - - -
19/08:16pm 10.3 SW 15 27 1023.1 - 0.0 - Partly cloudy 10 - - - -
19/08:00pm 10.5 WSW 12 17 1022.8 - 0.0 - Partly cloudy 10 - - - -
19/07:30pm 10.3 W 9 11 1022.1 - 0.0 - Cloudy 10 - - - -
19/07:00pm 10.3 SW 11 15 1021.4 - 0.0 - Partly cloudy 10 - - - -
19/06:30pm 10.6 SW 13 19 1020.8 - 0.0 - Partly cloudy 10 - - - -
19/06:00pm 10.9 SW 15 24 1020.4 - 0.0 - Cloudy 10 - - - -
19/05:38pm 12.6 SW 19 29 1019.9 - 0.0 - Partly cloudy 10 - - - -

Other Formats:

Comma delimited format used in spreadsheet applications
http://www.bom.gov.au/fwo/IDT60701/IDT60701.95957.axf

JavaScript Object Notation format (JSON) in row-major order
http://www.bom.gov.au/fwo/IDT60701/IDT60701.95957.json